createdAt,value
2022-12-15T00:00:41.228Z,100285.41
2022-12-15T00:03:27.165Z,100240.22
2022-12-15T00:06:14.682Z,100209.63
2022-12-15T00:09:00.516Z,100180.25
2022-12-15T00:11:45.988Z,100151.09
2022-12-15T00:14:33.108Z,100130.97
2022-12-15T00:17:18.313Z,100100.91
2022-12-15T00:20:03.394Z,100091.97
2022-12-15T00:22:48.810Z,100081.03
2022-12-15T00:25:34.614Z,100059.41
2022-12-15T00:28:20.511Z,100040.94
2022-12-15T00:31:07.176Z,100012.44
2022-12-15T00:33:53.176Z,100018.41
2022-12-15T00:36:38.751Z,100004.56
2022-12-15T00:39:06.629Z,100001.16
2022-12-15T00:41:34.511Z,99974.81
2022-12-15T00:44:04.672Z,99958.50
2022-12-15T00:46:51.708Z,99902.78
2022-12-15T00:49:37.238Z,99891.53
2022-12-15T00:52:23.130Z,99878.41
2022-12-15T00:55:08.588Z,99881.66
2022-12-15T00:57:55.101Z,99859.41
2022-12-15T01:00:41.718Z,99852.38
2022-12-15T01:03:33.477Z,99851.59
2022-12-15T01:06:22.857Z,99831.06
2022-12-15T01:09:08.438Z,99799.50
2022-12-15T01:11:55.247Z,99828.56
2022-12-15T01:14:41.774Z,99800.41
2022-12-15T01:17:27.835Z,99790.19
2022-12-15T01:20:17.435Z,99797.84
2022-12-15T01:22:46.626Z,99784.19
2022-12-15T01:25:18.302Z,99787.56
2022-12-15T01:27:46.964Z,99795.28
2022-12-15T01:30:17.782Z,99777.31
2022-12-15T01:32:46.284Z,99781.59
2022-12-15T01:35:25.917Z,99775.66
2022-12-15T01:37:53.943Z,99766.13
2022-12-15T01:40:47.029Z,99770.53
2022-12-15T01:43:19.226Z,99761.03
2022-12-15T01:45:51.216Z,99755.00
2022-12-15T01:48:35.488Z,99762.72
2022-12-15T01:51:18.303Z,99772.00
2022-12-15T01:53:52.466Z,99777.84
2022-12-15T01:56:21.732Z,99777.97
2022-12-15T01:58:54.686Z,99754.88
2022-12-15T02:01:22.690Z,99761.00
2022-12-15T02:03:51.024Z,99759.94
2022-12-15T02:06:22.845Z,99760.00
2022-12-15T02:08:54.165Z,99761.66
2022-12-15T02:11:46.005Z,99766.84
2022-12-15T02:14:21.652Z,99757.47
2022-12-15T02:17:01.537Z,99762.72
2022-12-15T02:19:54.969Z,99752.53
2022-12-15T02:22:36.221Z,99744.78
2022-12-15T02:25:43.270Z,99745.59
2022-12-15T02:28:14.413Z,99735.25
2022-12-15T02:31:15.815Z,99743.78
2022-12-15T02:33:52.164Z,99742.91
2022-12-15T02:36:42.457Z,99747.34
2022-12-15T02:39:15.524Z,99730.25
2022-12-15T02:41:46.390Z,99733.69
2022-12-15T02:44:18.882Z,99742.28
2022-12-15T02:47:12.868Z,99743.16
2022-12-15T02:49:50.503Z,99738.84
2022-12-15T02:52:32.668Z,99740.53
2022-12-15T02:55:13.951Z,99742.34
2022-12-15T02:57:52.925Z,99742.34
2022-12-15T03:00:21.550Z,99734.56
2022-12-15T03:02:54.497Z,99733.69
2022-12-15T03:05:25.199Z,99748.25
2022-12-15T03:07:55.221Z,99743.13
2022-12-15T03:10:29.219Z,99748.31
2022-12-15T03:12:59.157Z,99741.38
2022-12-15T03:15:30.456Z,99745.69
2022-12-15T03:18:04.908Z,99744.81
2022-12-15T03:20:33.206Z,99743.06
2022-12-15T03:23:02.119Z,99744.78
2022-12-15T03:25:33.464Z,99731.84
2022-12-15T03:28:01.775Z,99740.50
2022-12-15T03:30:29.875Z,99739.59
2022-12-15T03:33:01.936Z,99728.47
2022-12-15T03:35:33.838Z,99745.75
2022-12-15T03:38:02.212Z,99758.69
2022-12-15T03:40:32.122Z,99753.47
2022-12-15T03:43:01.144Z,99751.78
2022-12-15T03:45:29.936Z,99750.78
2022-12-15T03:47:58.229Z,99743.09
2022-12-15T03:50:27.879Z,99754.34
2022-12-15T03:52:59.535Z,99758.72
2022-12-15T03:55:29.263Z,99757.84
2022-12-15T03:58:00.203Z,99756.13
2022-12-15T04:00:28.992Z,99752.72
2022-12-15T04:02:57.429Z,99742.41
2022-12-15T04:05:27.230Z,99750.13
2022-12-15T04:07:59.401Z,99748.28
2022-12-15T04:10:34.327Z,99749.09
2022-12-15T04:13:05.164Z,99742.31
2022-12-15T04:15:34.816Z,99738.00
2022-12-15T04:18:06.893Z,99723.41
2022-12-15T04:20:34.946Z,99728.56
2022-12-15T04:23:03.425Z,99728.59
2022-12-15T04:25:50.088Z,99734.63
2022-12-15T04:28:35.615Z,99740.69
2022-12-15T04:31:26.584Z,99743.34
2022-12-15T04:34:17.160Z,99735.59
2022-12-15T04:37:05.930Z,99732.19
2022-12-15T04:39:52.689Z,99738.25
2022-12-15T04:42:39.835Z,99738.25
2022-12-15T04:45:28.080Z,99735.69
2022-12-15T04:48:13.710Z,99736.56
2022-12-15T04:51:01.238Z,99727.03
2022-12-15T04:53:46.765Z,99739.97
2022-12-15T04:56:34.068Z,99738.25
2022-12-15T04:59:22.829Z,99744.28
2022-12-15T05:02:09.093Z,99734.81
2022-12-15T05:04:54.789Z,99739.97
2022-12-15T05:07:43.861Z,99736.50
2022-12-15T05:10:38.251Z,99745.94
2022-12-15T05:13:25.236Z,99744.28
2022-12-15T05:16:12.357Z,99741.63
2022-12-15T05:18:58.832Z,99744.19
2022-12-15T05:21:45.042Z,99733.84
2022-12-15T05:24:30.913Z,99741.56
2022-12-15T05:27:16.454Z,99734.72
2022-12-15T05:30:01.943Z,99739.03
2022-12-15T05:32:32.953Z,99738.22
2022-12-15T05:35:06.348Z,99727.88
2022-12-15T05:37:37.827Z,99737.31
2022-12-15T05:40:12.449Z,99740.75
2022-12-15T05:42:40.323Z,99732.13
2022-12-15T05:45:10.338Z,99740.69
2022-12-15T05:47:53.213Z,99727.84
2022-12-15T05:50:23.306Z,99732.16
2022-12-15T05:52:55.668Z,99737.31
2022-12-15T05:55:25.213Z,99732.19
2022-12-15T05:57:54.039Z,99733.06
2022-12-15T06:00:28.138Z,99729.59
2022-12-15T06:02:59.028Z,99727.03
2022-12-15T06:05:26.953Z,99746.00
2022-12-15T06:07:54.899Z,99733.94
2022-12-15T06:10:23.067Z,99734.81
2022-12-15T06:12:51.066Z,99734.81
2022-12-15T06:15:19.038Z,99744.28
2022-12-15T06:17:49.584Z,99736.53
2022-12-15T06:20:19.281Z,99741.72
2022-12-15T06:22:50.095Z,99737.38
2022-12-15T06:25:18.491Z,99740.81
2022-12-15T06:27:46.636Z,99745.19
2022-12-15T06:30:16.223Z,99753.75
2022-12-15T06:32:44.069Z,99736.53
2022-12-15T06:35:12.072Z,99744.31
2022-12-15T06:37:46.064Z,99749.50
2022-12-15T06:40:14.261Z,99737.44
2022-12-15T06:42:42.148Z,99736.56
2022-12-15T06:45:11.007Z,99742.59
2022-12-15T06:47:43.719Z,99743.41
2022-12-15T06:50:14.520Z,99738.22
2022-12-15T06:52:46.346Z,99741.66
2022-12-15T06:55:14.619Z,99735.63
2022-12-15T06:57:43.943Z,99733.91
2022-12-15T07:00:12.767Z,99738.28
2022-12-15T07:02:43.173Z,99739.13
2022-12-15T07:05:17.282Z,99742.63
2022-12-15T07:07:48.178Z,99754.69
2022-12-15T07:10:16.367Z,99752.97
2022-12-15T07:12:44.703Z,99755.56
2022-12-15T07:15:13.122Z,99754.69
2022-12-15T07:17:41.112Z,99763.31
2022-12-15T07:20:11.194Z,99769.38
2022-12-15T07:22:39.141Z,99778.00
2022-12-15T07:25:11.119Z,99768.50
2022-12-15T07:27:38.962Z,99757.28
2022-12-15T07:30:08.806Z,99763.34
2022-12-15T07:32:36.604Z,99768.53
2022-12-15T07:35:05.937Z,99768.53
2022-12-15T07:37:33.862Z,99780.59
2022-12-15T07:40:04.650Z,99787.50
2022-12-15T07:42:33.867Z,99781.47
2022-12-15T07:45:01.952Z,99790.97
2022-12-15T07:47:29.948Z,99786.63
2022-12-15T07:49:58.307Z,99797.84
2022-12-15T07:52:26.592Z,99797.84
2022-12-15T07:54:55.398Z,99800.44
2022-12-15T07:57:23.674Z,99791.78
2022-12-15T07:59:53.375Z,99792.66
2022-12-15T08:02:21.508Z,99789.19
2022-12-15T08:04:49.395Z,99784.00
2022-12-15T08:07:17.804Z,99788.28
2022-12-15T08:09:47.682Z,99783.13
2022-12-15T08:12:17.124Z,99775.34
2022-12-15T08:14:50.004Z,99781.34
2022-12-15T08:17:19.930Z,99780.50
2022-12-15T08:19:47.952Z,99790.03
2022-12-15T08:22:28.532Z,99796.09
2022-12-15T08:24:56.561Z,99801.28
2022-12-15T08:27:24.340Z,99801.28
2022-12-15T08:29:52.838Z,99806.44
2022-12-15T08:32:24.611Z,99799.53
2022-12-15T08:34:52.558Z,99810.75
2022-12-15T08:37:20.514Z,99818.56
2022-12-15T08:39:48.653Z,99813.38
2022-12-15T08:42:16.469Z,99809.03
2022-12-15T08:45:13.162Z,99812.50
2022-12-15T08:47:42.591Z,99805.59
2022-12-15T08:50:10.671Z,99801.25
2022-12-15T08:52:55.259Z,99806.44
2022-12-15T08:55:29.605Z,99808.16
2022-12-15T08:57:57.638Z,99809.84
2022-12-15T09:00:25.693Z,99816.75
2022-12-15T09:02:55.470Z,99809.78
2022-12-15T09:05:26.080Z,99802.78
2022-12-15T09:07:59.426Z,99802.75
2022-12-15T09:10:31.568Z,99805.34
2022-12-15T09:12:59.461Z,99804.34
2022-12-15T09:15:45.646Z,99800.03
2022-12-15T09:18:16.718Z,99799.91
2022-12-15T09:20:45.731Z,99798.94
2022-12-15T09:23:14.054Z,99752.88
2022-12-15T09:25:42.412Z,99728.38
2022-12-15T09:28:12.954Z,99701.91
2022-12-15T09:30:41.004Z,99692.09
2022-12-15T09:33:12.597Z,99688.13
2022-12-15T09:36:08.538Z,99675.75
2022-12-15T09:38:41.046Z,99676.66
2022-12-15T09:41:19.529Z,99668.06
2022-12-15T09:43:55.042Z,99674.91
2022-12-15T09:46:31.858Z,99669.06
2022-12-15T09:49:09.857Z,99676.47
2022-12-15T09:51:51.943Z,99683.69
2022-12-15T09:54:41.872Z,99677.66
2022-12-15T09:57:24.949Z,99679.50
2022-12-15T10:00:17.839Z,99677.75
2022-12-15T10:03:30.274Z,99668.16
2022-12-15T10:06:18.295Z,99672.38
2022-12-15T10:08:58.141Z,99650.91
2022-12-15T10:11:42.009Z,99659.34
2022-12-15T10:14:25.421Z,99659.28
2022-12-15T10:17:02.487Z,99659.31
2022-12-15T10:19:39.910Z,99648.97
2022-12-15T10:22:13.911Z,99666.13
2022-12-15T10:27:57.168Z,99643.53
2022-12-15T10:30:25.477Z,99646.13
2022-12-15T10:33:02.780Z,99653.69
2022-12-15T10:35:42.487Z,99653.50
2022-12-15T10:38:23.234Z,99635.91
2022-12-15T10:40:55.121Z,99644.25
2022-12-15T10:43:36.591Z,99628.47
2022-12-15T10:46:14.252Z,99637.97
2022-12-15T10:48:43.912Z,99630.09
2022-12-15T10:51:27.215Z,99633.69
2022-12-15T10:54:04.799Z,99651.66
2022-12-15T10:56:40.423Z,99662.84
2022-12-15T10:59:31.120Z,99661.78
2022-12-15T11:02:27.237Z,99659.00
2022-12-15T11:04:59.685Z,99670.22
2022-12-15T11:07:34.126Z,99670.28
2022-12-15T11:10:09.569Z,99670.66
2022-12-15T11:12:58.274Z,99676.81
2022-12-15T11:15:50.742Z,99705.69
2022-12-15T11:18:28.903Z,99752.16
2022-12-15T11:21:02.995Z,99804.19
2022-12-15T11:23:51.870Z,99852.00
2022-12-15T11:26:50.369Z,99884.72
2022-12-15T11:29:30.847Z,99926.75
2022-12-15T11:32:03.203Z,99977.31
2022-12-15T11:34:38.732Z,100034.25
2022-12-15T11:37:34.033Z,100066.19
2022-12-15T11:40:18.325Z,100107.94
2022-12-15T11:43:01.652Z,100134.53
2022-12-15T11:45:40.684Z,100165.78
2022-12-15T11:48:14.588Z,100198.03
2022-12-15T11:50:54.619Z,100207.25
2022-12-15T11:53:58.070Z,100251.03
2022-12-15T11:56:30.994Z,100286.75
2022-12-15T11:59:24.150Z,100288.91
2022-12-15T12:02:09.765Z,100330.75
2022-12-15T12:04:50.771Z,100373.59
2022-12-15T12:07:34.579Z,100405.91
2022-12-15T12:10:15.527Z,100429.72
2022-12-15T12:12:50.615Z,100448.09
2022-12-15T12:15:31.377Z,100457.88
2022-12-15T12:18:08.927Z,100450.84
2022-12-15T12:20:44.695Z,100433.19
2022-12-15T12:23:18.063Z,100415.72
2022-12-15T12:26:03.476Z,100411.22
2022-12-15T12:28:41.867Z,100456.94
2022-12-15T12:31:23.853Z,100512.06
2022-12-15T12:34:02.599Z,100564.94
2022-12-15T12:36:30.641Z,100597.41
2022-12-15T12:39:00.167Z,100569.75
2022-12-15T12:41:40.404Z,100543.38
2022-12-15T12:44:15.997Z,100522.06
2022-12-15T12:46:48.950Z,100498.28
2022-12-15T12:49:27.276Z,100492.78
2022-12-15T12:51:58.672Z,100469.25
2022-12-15T12:54:47.983Z,100454.03
2022-12-15T12:57:38.048Z,100446.41
2022-12-15T13:00:16.910Z,100446.75
2022-12-15T13:03:05.953Z,100445.25
2022-12-15T13:05:39.900Z,100451.44
2022-12-15T13:08:33.375Z,100459.63
2022-12-15T13:11:39.780Z,100461.84
2022-12-15T13:17:27.977Z,100485.00
2022-12-15T13:20:18.656Z,100491.72
2022-12-15T13:22:48.713Z,100522.25
2022-12-15T13:25:48.586Z,100519.09
2022-12-15T13:28:42.859Z,100522.47
2022-12-15T13:31:34.369Z,100513.13
2022-12-15T13:34:19.278Z,100518.50
2022-12-15T13:36:54.871Z,100513.22
2022-12-15T13:39:53.613Z,100514.78
2022-12-15T13:42:44.493Z,100523.69
2022-12-15T13:45:51.852Z,100518.53
2022-12-15T13:48:32.751Z,100508.41
2022-12-15T13:51:25.126Z,100507.72
2022-12-15T13:53:59.526Z,100503.72
2022-12-15T13:56:52.924Z,100519.38
2022-12-15T13:59:44.821Z,100531.38
2022-12-15T14:02:31.500Z,100536.34
2022-12-15T14:05:15.158Z,100543.66
2022-12-15T14:07:54.179Z,100555.03
2022-12-15T14:10:25.950Z,100555.22
2022-12-15T14:12:59.037Z,100567.47
2022-12-15T14:15:30.022Z,100589.19
2022-12-15T14:17:59.791Z,100600.47
2022-12-15T14:20:30.711Z,100603.09
2022-12-15T14:22:58.762Z,100616.13
2022-12-15T14:25:30.544Z,100609.09
2022-12-15T14:28:00.044Z,100602.22
2022-12-15T14:30:29.967Z,100614.50
2022-12-15T14:33:04.125Z,100614.59
2022-12-15T14:35:41.657Z,100613.78
2022-12-15T14:38:15.946Z,100601.66
2022-12-15T14:40:46.643Z,100588.66
2022-12-15T14:43:22.090Z,100581.78
2022-12-15T14:45:56.002Z,100549.63
2022-12-15T14:48:40.990Z,100551.38
2022-12-15T14:51:12.301Z,100543.66
2022-12-15T14:53:43.238Z,100515.78
2022-12-15T14:56:30.508Z,100492.28
2022-12-15T14:59:03.997Z,100484.47
2022-12-15T15:01:37.021Z,100474.91
2022-12-15T15:03:11.153Z,100484.69
2022-12-15T15:04:06.426Z,100466.22
2022-12-15T15:06:38.549Z,100461.88
2022-12-15T15:09:25.833Z,100455.03
2022-12-15T15:11:56.991Z,100444.66
2022-12-15T15:14:29.805Z,100434.38
2022-12-15T15:17:05.093Z,100400.47
2022-12-15T15:19:39.571Z,100406.50
2022-12-15T15:22:26.827Z,100390.91
2022-12-15T15:24:55.050Z,100384.91
2022-12-15T15:27:34.084Z,100347.63
2022-12-15T15:30:17.847Z,100328.41
2022-12-15T15:32:58.542Z,100293.63
2022-12-15T15:35:33.088Z,100268.28
2022-12-15T15:38:05.843Z,100260.44
2022-12-15T15:40:33.924Z,100265.53
2022-12-15T15:43:04.192Z,100272.50
2022-12-15T15:45:38.606Z,100268.13
2022-12-15T15:48:07.532Z,100260.31
2022-12-15T15:50:39.376Z,100263.94
2022-12-15T15:53:08.691Z,100256.16
2022-12-15T15:55:39.836Z,100246.63
2022-12-15T15:58:12.685Z,100233.72
2022-12-15T16:00:42.250Z,100222.44
2022-12-15T16:03:10.933Z,100205.16
2022-12-15T16:05:42.136Z,100198.25
2022-12-15T16:08:18.803Z,100191.41
2022-12-15T16:10:48.873Z,100177.59
2022-12-15T16:13:25.807Z,100155.06
2022-12-15T16:15:57.718Z,100146.50
2022-12-15T16:18:25.667Z,100124.81
2022-12-15T16:20:54.316Z,100101.44
2022-12-15T16:23:26.594Z,100090.16
2022-12-15T16:25:57.597Z,100067.69
2022-12-15T16:28:28.127Z,100059.06
2022-12-15T16:30:59.708Z,100039.00
2022-12-15T16:33:28.389Z,100002.69
2022-12-15T16:35:57.036Z,99999.81
2022-12-15T16:38:44.683Z,99991.13
2022-12-15T16:41:25.052Z,99979.94
2022-12-15T16:43:53.699Z,99979.06
2022-12-15T16:46:23.996Z,99977.44
2022-12-15T16:48:52.584Z,99980.03
2022-12-15T16:51:31.558Z,99971.38
2022-12-15T16:53:59.623Z,99964.41
2022-12-15T16:56:27.548Z,99957.50
2022-12-15T16:59:15.688Z,99961.09
2022-12-15T17:01:49.350Z,99948.16
2022-12-15T17:04:17.429Z,99963.75
2022-12-15T17:06:48.216Z,99967.38
2022-12-15T17:09:26.593Z,99961.31
2022-12-15T17:11:54.675Z,99959.59
2022-12-15T17:14:22.823Z,99953.50
2022-12-15T17:16:56.082Z,99956.16
2022-12-15T17:19:25.233Z,99944.00
2022-12-15T17:21:54.832Z,99936.22
2022-12-15T17:24:23.623Z,99940.56
2022-12-15T17:26:52.127Z,99927.63
2022-12-15T17:29:22.932Z,99931.16
2022-12-15T17:31:52.963Z,99919.03
2022-12-15T17:34:28.868Z,99916.44
2022-12-15T17:36:59.227Z,99913.84
2022-12-15T17:39:31.943Z,99907.00
2022-12-15T17:42:01.550Z,99910.47
2022-12-15T17:44:34.453Z,99905.19
2022-12-15T17:47:06.293Z,99894.72
2022-12-15T17:49:37.508Z,99889.56
2022-12-15T17:52:16.040Z,99888.69
2022-12-15T17:54:53.113Z,99889.50
2022-12-15T17:57:33.826Z,99888.66
2022-12-15T18:00:17.508Z,99874.69
2022-12-15T18:02:56.844Z,99868.53
2022-12-15T18:05:29.109Z,99865.94
2022-12-15T18:08:11.568Z,99863.28
2022-12-15T18:10:41.931Z,99862.38
2022-12-15T18:13:18.394Z,99864.94
2022-12-15T18:15:52.796Z,99856.31
2022-12-15T18:21:30.660Z,99872.06
2022-12-15T18:23:58.724Z,99848.69
2022-12-15T18:26:27.028Z,99870.25
2022-12-15T18:28:55.207Z,99870.16
2022-12-15T18:31:26.867Z,99867.53
2022-12-15T18:34:04.124Z,99874.44
2022-12-15T18:36:37.555Z,99883.09
2022-12-15T18:39:19.731Z,99886.59
2022-12-15T18:41:49.258Z,99897.88
2022-12-15T18:44:22.710Z,99900.47
2022-12-15T18:46:50.663Z,99905.66
2022-12-15T18:49:29.029Z,99899.53
2022-12-15T18:52:03.416Z,99909.97
2022-12-15T18:54:33.098Z,99900.44
2022-12-15T18:57:06.863Z,99915.19
2022-12-15T18:59:35.294Z,99923.91
2022-12-15T19:02:03.336Z,99916.13
2022-12-15T19:04:34.324Z,99926.63
2022-12-15T19:07:06.650Z,99941.41
2022-12-15T19:09:35.219Z,99944.97
2022-12-15T19:12:21.768Z,99948.50
2022-12-15T19:14:53.012Z,99954.66
2022-12-15T19:17:42.155Z,99952.91
2022-12-15T19:20:36.242Z,99958.13
2022-12-15T19:23:06.732Z,99954.66
2022-12-15T19:25:36.031Z,99954.63
2022-12-15T19:28:04.077Z,99966.72
2022-12-15T19:30:40.144Z,99958.94
2022-12-15T19:33:09.837Z,99958.06
2022-12-15T19:35:41.703Z,99964.09
2022-12-15T19:38:23.098Z,99951.13
2022-12-15T19:40:53.701Z,99950.31
2022-12-15T19:43:22.903Z,99955.50
2022-12-15T19:45:52.016Z,99956.31
2022-12-15T19:48:24.127Z,99964.09
2022-12-15T19:50:58.228Z,99958.88
2022-12-15T19:53:28.927Z,99960.59
2022-12-15T19:55:59.482Z,99957.09
2022-12-15T19:58:31.893Z,99969.19
2022-12-15T20:01:04.933Z,99965.69
2022-12-15T20:03:34.089Z,99952.69
2022-12-15T20:06:05.060Z,99957.81
2022-12-15T20:08:36.594Z,99952.63
2022-12-15T20:11:05.294Z,99954.34
2022-12-15T20:13:33.731Z,99964.75
2022-12-15T20:16:01.991Z,99971.72
2022-12-15T20:18:30.512Z,99976.03
2022-12-15T20:21:01.324Z,99972.59
2022-12-15T20:23:32.886Z,99977.78
2022-12-15T20:26:01.296Z,99987.34
2022-12-15T20:28:30.939Z,99984.69
2022-12-15T20:31:00.741Z,99997.72
2022-12-15T20:33:28.751Z,99994.25
2022-12-15T20:35:57.570Z,99994.22
2022-12-15T20:38:31.524Z,99995.03
2022-12-15T20:41:01.170Z,100003.66
2022-12-15T20:43:32.284Z,99998.47
2022-12-15T20:46:04.919Z,100004.53
2022-12-15T20:48:36.727Z,100009.75
2022-12-15T20:51:09.755Z,100020.16
2022-12-15T20:53:41.823Z,100008.88
2022-12-15T20:56:11.680Z,100027.94
2022-12-15T20:58:46.140Z,100027.94
2022-12-15T21:01:19.726Z,100037.47
2022-12-15T21:03:48.969Z,100056.56
2022-12-15T21:06:17.947Z,100060.88
2022-12-15T21:08:48.557Z,100067.81
2022-12-15T21:11:19.575Z,100067.00
2022-12-15T21:13:50.275Z,100091.25
2022-12-15T21:16:21.388Z,100086.06
2022-12-15T21:19:18.597Z,100094.75
2022-12-15T21:21:41.875Z,100100.81
2022-12-15T21:24:17.597Z,100124.25
2022-12-15T21:26:46.473Z,100128.63
2022-12-15T21:29:16.587Z,100116.50
2022-12-15T21:31:44.921Z,100132.13
2022-12-15T21:34:12.836Z,100131.25
2022-12-15T21:36:43.122Z,100141.66
2022-12-15T21:39:19.268Z,100145.13
2022-12-15T21:41:51.532Z,100146.88
2022-12-15T21:44:21.854Z,100159.00
2022-12-15T21:46:50.233Z,100159.84
2022-12-15T21:49:21.853Z,100139.94
2022-12-15T21:51:54.964Z,100152.94
2022-12-15T21:54:30.976Z,100159.88
2022-12-15T21:56:59.879Z,100155.53
2022-12-15T21:59:31.230Z,100159.00
2022-12-15T22:02:01.358Z,100158.16
2022-12-15T22:04:31.774Z,100156.44
2022-12-15T22:06:59.939Z,100149.53
2022-12-15T22:12:25.314Z,100149.53
2022-12-15T22:14:53.318Z,100152.16
2022-12-15T22:17:27.515Z,100151.28
2022-12-15T22:19:57.059Z,100155.59
2022-12-15T22:22:32.508Z,100146.00
2022-12-15T22:25:18.861Z,100134.75
2022-12-15T22:27:48.862Z,100143.38
2022-12-15T22:30:25.244Z,100136.44
2022-12-15T22:32:53.847Z,100139.06
2022-12-15T22:35:25.368Z,100130.47
2022-12-15T22:37:55.229Z,100135.69
2022-12-15T22:40:30.410Z,100142.63
2022-12-15T22:43:00.426Z,100139.16
2022-12-15T22:45:30.744Z,100132.28
2022-12-15T22:48:02.415Z,100134.03
2022-12-15T22:50:30.604Z,100128.00
2022-12-15T22:52:58.576Z,100136.66
2022-12-15T22:55:28.406Z,100137.53
2022-12-15T22:58:00.632Z,100125.34
2022-12-15T23:00:29.356Z,100127.09
2022-12-15T23:03:12.438Z,100127.88
2022-12-15T23:05:45.609Z,100117.47
2022-12-15T23:08:13.579Z,100107.94
2022-12-15T23:11:00.567Z,100105.28
2022-12-15T23:13:28.702Z,100106.13
2022-12-15T23:16:14.129Z,100084.47
2022-12-15T23:18:42.163Z,100087.91
2022-12-15T23:21:12.280Z,100071.34
2022-12-15T23:23:41.635Z,100067.06
2022-12-15T23:26:13.552Z,100067.06
2022-12-15T23:28:43.265Z,100075.69
2022-12-15T23:31:11.780Z,100060.94
2022-12-15T23:33:41.207Z,100060.94
2022-12-15T23:36:12.214Z,100061.81
2022-12-15T23:38:40.206Z,100058.34
2022-12-15T23:41:08.190Z,100066.19
2022-12-15T23:43:37.814Z,100060.06
2022-12-15T23:46:09.044Z,100052.19
2022-12-15T23:48:39.022Z,100048.78
2022-12-15T23:51:10.400Z,100054.78
2022-12-15T23:53:39.805Z,100051.31
2022-12-15T23:56:12.545Z,100047.91
2022-12-15T23:58:50.061Z,100053.91
